Time;durP1;ratioP1;P1;durP2;ratioP2;P2;SDS_P1;SDS_P2;PMS_P1;PMS_P2;Temp;Humidity;BMP_temperature;BMP_pressure;BME280_temperature;BME280_humidity;BME280_pressure;Samples;Min_cycle;Max_cycle;Signal;HPM_P1;HPM_P2
2021/06/11 00:01:32;;;;;;;5.75;4.70;;;21.50;43.30;;;;;;4144734;28;20077;-58
2021/06/11 00:03:36;;;;;;;4.85;4.32;;;21.40;43.40;;;;;;4150185;28;20040;-58
2021/06/11 00:05:39;;;;;;;4.68;3.80;;;21.40;43.50;;;;;;4150311;28;20040;-60
2021/06/11 00:07:41;;;;;;;4.90;4.30;;;21.60;43.30;;;;;;4150250;28;20526;-59
2021/06/11 00:09:43;;;;;;;5.38;4.38;;;21.70;43.20;;;;;;4147658;28;20223;-58
2021/06/11 00:11:46;;;;;;;4.97;4.38;;;;;;;;;;4148491;28;20498;-58
2021/06/11 00:13:48;;;;;;;4.50;4.00;;;22.00;43.00;;;;;;4144692;28;20030;-59
2021/06/11 00:15:50;;;;;;;5.20;4.18;;;22.20;42.50;;;;;;4147485;28;20376;-57
2021/06/11 00:17:52;;;;;;;5.75;4.30;;;22.40;42.20;;;;;;4149479;28;20025;-59
2021/06/11 00:19:54;;;;;;;5.50;4.47;;;;;;;;;;4147750;28;20028;-61
2021/06/11 00:21:57;;;;;;;4.82;4.10;;;;;;;;;;4150045;28;20049;-59
2021/06/11 00:23:58;;;;;;;5.40;4.28;;;;;;;;;;4145983;28;20109;-57
2021/06/11 00:26:00;;;;;;;4.45;3.80;;;;;;;;;;4151138;28;20028;-55
2021/06/11 00:28:02;;;;;;;5.97;4.60;;;;;;;;;;4152038;28;20021;-59
2021/06/11 00:30:06;;;;;;;5.18;4.20;;;;;;;;;;4149616;28;20438;-58
2021/06/11 00:32:08;;;;;;;5.40;4.35;;;;;;;;;;4150592;28;20025;-60
2021/06/11 00:34:10;;;;;;;5.23;4.13;;;;;;;;;;4152644;28;20374;-59
2021/06/11 00:36:12;;;;;;;5.63;4.00;;;;;;;;;;4146486;28;20124;-60
2021/06/11 00:38:14;;;;;;;4.75;3.90;;;;;;;;;;4146570;28;20025;-59
2021/06/11 00:40:16;;;;;;;6.18;4.03;;;;;;;;;;4146196;28;20033;-58
2021/06/11 00:42:18;;;;;;;5.07;4.00;;;;;;;;;;4149783;28;20494;-56
2021/06/11 00:44:20;;;;;;;4.85;4.05;;;;;;;;;;4147603;28;20056;-59
2021/06/11 00:46:22;;;;;;;5.43;4.03;;;;;;;;;;4147258;28;20445;-56
2021/06/11 00:48:24;;;;;;;5.32;4.07;;;;;;;;;;4146844;28;20084;-58
2021/06/11 00:50:29;;;;;;;4.07;3.50;;;22.50;42.50;;;;;;4146714;28;20065;-59
2021/06/11 00:52:32;;;;;;;4.78;3.90;;;;;;;;;;4147170;28;20116;-60
2021/06/11 00:54:35;;;;;;;4.97;3.53;;;;;;;;;;4147536;28;20033;-57
2021/06/11 00:56:37;;;;;;;5.75;3.95;;;;;;;;;;4148977;28;20037;-53
2021/06/11 00:58:39;;;;;;;4.53;3.53;;;;;;;;;;4139603;28;20068;-55
2021/06/11 01:00:41;;;;;;;5.07;3.75;;;;;;;;;;4144214;28;20025;-57
2021/06/11 01:02:43;;;;;;;4.00;3.33;;;;;;;;;;4150029;28;20650;-58
2021/06/11 01:04:45;;;;;;;3.83;3.17;;;;;;;;;;4152140;28;20021;-59
2021/06/11 01:06:48;;;;;;;3.50;2.97;;;23.80;40.50;;;;;;4146560;28;20449;-56
2021/06/11 01:08:51;;;;;;;3.88;2.95;;;;;;;;;;4145829;28;20033;-60
2021/06/11 01:10:54;;;;;;;4.40;3.15;;;;;;;;;;4146361;28;20057;-60
2021/06/11 01:12:57;;;;;;;3.92;2.85;;;;;;;;;;4142711;28;20038;-59
2021/06/11 01:14:59;;;;;;;4.20;3.30;;;;;;;;;;4144772;28;20447;-59
2021/06/11 01:17:01;;;;;;;3.65;2.67;;;;;;;;;;4151180;28;20033;-61
2021/06/11 01:19:05;;;;;;;4.07;2.80;;;25.00;39.40;;;;;;4144788;28;20034;-60
2021/06/11 01:21:08;;;;;;;4.60;2.80;;;25.70;38.40;;;;;;4150948;28;20033;-59
2021/06/11 01:23:48;;;;;;;3.70;2.80;;;;;;;;;;4142854;28;20092;-53
2021/06/11 01:25:53;;;;;;;3.30;2.70;;;;;;;;;;4141211;28;20045;-60
2021/06/11 01:27:55;;;;;;;3.05;2.40;;;;;;;;;;4141468;28;20037;-58
2021/06/11 01:30:04;;;;;;;4.32;2.72;;;;;;;;;;4139637;28;20032;-59
2021/06/11 01:32:08;;;;;;;3.28;2.60;;;;;;;;;;4147539;28;20037;-60
2021/06/11 01:34:13;;;;;;;3.15;2.40;;;;;;;;;;4145321;28;20025;-60
2021/06/11 01:36:16;;;;;;;3.28;2.28;;;;;;;;;;4145530;28;20450;-60
2021/06/11 01:38:20;;;;;;;2.63;2.17;;;;;;;;;;4145532;28;20053;-59
2021/06/11 01:40:23;;;;;;;3.65;2.45;;;25.80;38.50;;;;;;4149587;28;20025;-60
2021/06/11 01:42:27;;;;;;;3.97;2.47;;;26.80;38.10;;;;;;4143462;28;20269;-60
2021/06/11 01:44:30;;;;;;;4.47;2.17;;;26.80;37.80;;;;;;4147001;28;20075;-60
2021/06/11 01:46:34;;;;;;;3.10;2.10;;;26.90;37.80;;;;;;4145321;28;20033;-59
2021/06/11 01:48:38;;;;;;;2.83;2.25;;;;;;;;;;4145451;28;20060;-61
2021/06/11 01:50:41;;;;;;;4.18;2.35;;;27.00;37.80;;;;;;4148540;28;20138;-61
2021/06/11 01:52:45;;;;;;;2.90;2.00;;;27.20;37.40;;;;;;4146227;28;20018;-59
2021/06/11 01:54:47;;;;;;;3.05;2.13;;;27.20;37.30;;;;;;4148953;28;20179;-61
2021/06/11 01:56:51;;;;;;;2.90;2.00;;;27.30;37.20;;;;;;4147016;28;20096;-60
2021/06/11 01:58:54;;;;;;;2.55;2.05;;;27.50;37.10;;;;;;4146186;28;21544;-60
2021/06/11 02:00:57;;;;;;;;;;;27.50;37.60;;;;;;4148830;28;20056;-59
2021/06/11 02:03:00;;;;;;;1.75;1.50;;;27.30;38.20;;;;;;4148367;28;20333;-60
2021/06/11 02:05:04;;;;;;;;;;;27.00;38.60;;;;;;4144787;28;20069;-59
2021/06/11 02:07:09;;;;;;;2.20;1.60;;;26.80;39.10;;;;;;4148234;28;20290;-61
2021/06/11 02:09:12;;;;;;;2.38;1.55;;;26.60;39.40;;;;;;4146344;28;20037;-59
2021/06/11 02:11:14;;;;;;;;;;;26.30;39.50;;;;;;4148810;28;20040;-59
2021/06/11 02:13:16;;;;;;;1.40;1.15;;;26.10;39.90;;;;;;4147911;28;20349;-61
2021/06/11 02:15:19;;;;;;;2.20;1.20;;;26.00;39.90;;;;;;4142774;28;20034;-58
2021/06/11 02:17:22;;;;;;;2.40;1.13;;;25.80;40.10;;;;;;4145685;28;20060;-59
2021/06/11 02:19:24;;;;;;;2.55;1.38;;;;;;;;;;4149034;28;20402;-59
2021/06/11 02:21:26;;;;;;;1.60;1.25;;;;;;;;;;4142063;28;20033;-60
2021/06/11 02:23:29;;;;;;;3.90;1.40;;;;;;;;;;4145188;28;20091;-61
2021/06/11 02:25:31;;;;;;;1.33;1.05;;;;;;;;;;4146649;28;20054;-60
2021/06/11 02:27:35;;;;;;;4.07;1.20;;;25.70;40.40;;;;;;4143920;28;20179;-57
2021/06/11 02:29:38;;;;;;;1.67;1.23;;;25.10;41.90;;;;;;4149550;28;20463;-59
2021/06/11 02:31:41;;;;;;;1.48;1.10;;;24.90;41.40;;;;;;4147440;28;20034;-53
2021/06/11 02:33:43;;;;;;;1.08;0.98;;;;;;;;;;4147992;28;20030;-60
2021/06/11 02:35:45;;;;;;;0.98;0.88;;;24.80;41.40;;;;;;4150337;28;20018;-60
2021/06/11 02:37:48;;;;;;;1.65;1.20;;;24.60;42.50;;;;;;4145832;28;20032;-59
2021/06/11 02:39:50;;;;;;;2.10;1.02;;;24.50;42.10;;;;;;4148065;28;20043;-59
2021/06/11 02:42:00;;;;;;;1.60;1.27;;;24.40;42.00;;;;;;4147123;28;20126;-59
2021/06/11 02:44:05;;;;;;;2.00;1.10;;;24.30;42.10;;;;;;4148509;28;20393;-60
2021/06/11 02:46:13;;;;;;;1.92;0.85;;;24.20;42.20;;;;;;4148013;28;20030;-59
2021/06/11 02:48:32;;;;;;;1.15;0.88;;;24.10;42.40;;;;;;4147482;28;20029;-60
2021/06/11 02:50:40;;;;;;;1.35;0.90;;;24.00;42.50;;;;;;4150133;28;20080;-60
2021/06/11 02:52:52;;;;;;;0.77;0.77;;;23.90;42.60;;;;;;4145374;28;20022;-59
2021/06/11 02:55:02;;;;;;;1.48;0.95;;;23.80;42.90;;;;;;4144226;28;20038;-60
2021/06/11 02:57:18;;;;;;;0.47;0.45;;;23.70;42.80;;;;;;4149807;28;20029;-59
2021/06/11 02:59:30;;;;;;;0.70;0.65;;;23.60;43.00;;;;;;4147846;28;20033;-61
2021/06/11 03:01:39;;;;;;;0.95;0.80;;;23.60;43.10;;;;;;4142329;28;20080;-62
2021/06/11 03:03:42;;;;;;;1.00;0.90;;;;;;;;;;4145923;28;20037;-59
2021/06/11 03:05:45;;;;;;;1.20;1.08;;;;;;;;;;4146752;28;20541;-59
2021/06/11 03:07:52;;;;;;;1.52;0.95;;;23.50;43.20;;;;;;4138793;28;20053;-60
2021/06/11 03:10:12;;;;;;;1.10;0.93;;;;;;;;;;4138287;28;20515;-60
2021/06/11 03:12:15;;;;;;;1.55;0.60;;;;;;;;;;4149906;28;20080;-60
2021/06/11 03:14:17;;;;;;;1.00;0.90;;;;;;;;;;4147652;28;20547;-60
2021/06/11 03:16:19;;;;;;;0.90;0.70;;;;;;;;;;4144945;28;20026;-59
2021/06/11 03:18:30;;;;;;;1.33;0.77;;;;;;;;;;4146344;28;20087;-59
2021/06/11 03:20:36;;;;;;;1.83;0.63;;;;;;;;;;4150168;28;20045;-60
2021/06/11 03:22:41;;;;;;;1.13;0.75;;;;;;;;;;4145638;28;20033;-60
2021/06/11 03:24:54;;;;;;;2.42;0.80;;;;;;;;;;4148390;28;20123;-60
2021/06/11 03:27:07;;;;;;;0.98;0.70;;;;;;;;;;4148380;28;20678;-59
2021/06/11 03:29:10;;;;;;;1.23;0.80;;;;;;;;;;4147717;28;20025;-59
2021/06/11 03:31:11;;;;;;;;;;;;;;;;;;4147449;28;20028;-60
2021/06/11 03:33:15;;;;;;;2.28;0.73;;;;;;;;;;4144639;28;19952;-61
2021/06/11 03:35:25;;;;;;;1.70;1.40;;;;;;;;;;4146048;28;20112;-61
2021/06/11 03:37:29;;;;;;;1.75;1.40;;;23.30;44.20;;;;;;4148047;28;20112;-63
2021/06/11 03:39:33;;;;;;;3.42;1.42;;;;;;;;;;4148735;28;20071;-60
2021/06/11 03:41:36;;;;;;;3.25;1.20;;;;;;;;;;4147978;28;20041;-59
2021/06/11 03:43:38;;;;;;;5.40;1.17;;;;;;;;;;4145173;28;20033;-59
2021/06/11 03:45:41;;;;;;;2.15;0.85;;;;;;;;;;4131930;28;20066;-61
2021/06/11 03:47:43;;;;;;;1.85;1.00;;;;;;;;;;4144166;28;20042;-61
2021/06/11 03:49:46;;;;;;;3.42;1.10;;;;;;;;;;4149519;28;20112;-62
2021/06/11 03:51:48;;;;;;;1.38;1.00;;;;;;;;;;4141992;28;20026;-61
2021/06/11 03:53:51;;;;;;;0.85;0.85;;;;;;;;;;4149056;28;20541;-61
2021/06/11 03:56:00;;;;;;;2.92;1.00;;;;;;;;;;4146645;28;20064;-60
2021/06/11 03:58:05;;;;;;;1.48;1.00;;;;;;;;;;4145295;28;20037;-61
2021/06/11 04:00:07;;;;;;;1.13;0.82;;;;;;;;;;4145300;28;20061;-59
2021/06/11 04:02:09;;;;;;;1.20;0.90;;;;;;;;;;4146137;28;20046;-58
2021/06/11 04:04:11;;;;;;;0.80;0.80;;;;;;;;;;4138624;28;20110;-59
2021/06/11 04:06:24;;;;;;;1.15;0.80;;;;;;;;;;4142314;28;20040;-59
2021/06/11 04:08:33;;;;;;;1.02;0.80;;;22.30;44.20;;;;;;4128352;28;20033;-60
2021/06/11 04:10:39;;;;;;;0.80;0.80;;;21.20;46.50;;;;;;4139333;28;20072;-59
2021/06/11 04:13:03;;;;;;;1.95;0.90;;;21.10;47.10;;;;;;4138387;28;20046;-58
2021/06/11 04:15:06;;;;;;;0.80;0.80;;;21.10;47.10;;;;;;4138763;28;20037;-58
2021/06/11 04:17:14;;;;;;;0.88;0.82;;;21.00;47.20;;;;;;4142758;28;20037;-59
2021/06/11 04:19:25;;;;;;;2.78;0.80;;;21.00;47.40;;;;;;4140783;28;20152;-58
2021/06/11 04:21:30;;;;;;;0.57;0.57;;;21.00;47.50;;;;;;4142312;28;20044;-58
2021/06/11 04:23:34;;;;;;;1.85;0.73;;;20.90;47.70;;;;;;4139974;28;20030;-57
2021/06/11 04:25:38;;;;;;;2.13;0.80;;;20.90;47.80;;;;;;4141543;28;20030;-57
2021/06/11 04:27:42;;;;;;;1.38;0.90;;;20.80;47.70;;;;;;4143079;28;20570;-57
2021/06/11 04:29:46;;;;;;;1.27;0.70;;;20.80;47.90;;;;;;4139398;28;20184;-58
2021/06/11 04:31:52;;;;;;;1.27;0.80;;;20.80;48.00;;;;;;4143600;28;20501;-58
2021/06/11 04:33:54;;;;;;;1.10;0.90;;;20.70;48.00;;;;;;4145503;28;20174;-58
2021/06/11 04:35:57;;;;;;;0.77;0.70;;;20.70;48.20;;;;;;4144210;28;20040;-58
2021/06/11 04:38:00;;;;;;;0.82;0.82;;;20.60;47.90;;;;;;4150392;28;20030;-59
2021/06/11 04:40:03;;;;;;;1.98;0.82;;;20.70;47.90;;;;;;4139122;28;20091;-58
2021/06/11 04:42:06;;;;;;;1.25;0.98;;;20.90;47.80;;;;;;4141301;28;20058;-60
2021/06/11 04:44:09;;;;;;;1.87;1.00;;;21.20;47.80;;;;;;4140228;28;20029;-54
2021/06/11 04:46:11;;;;;;;0.70;0.70;;;;;;;;;;4142722;28;20580;-55
2021/06/11 04:48:13;;;;;;;1.00;0.85;;;;;;;;;;4140768;28;20091;-61
2021/06/11 04:50:15;;;;;;;1.10;0.98;;;;;;;;;;4150275;28;20017;-58
2021/06/11 04:52:16;;;;;;;1.25;0.95;;;;;;;;;;4149295;28;20040;-64
2021/06/11 04:54:18;;;;;;;1.20;1.00;;;;;;;;;;4151569;28;20025;-59
2021/06/11 04:56:20;;;;;;;1.30;1.10;;;;;;;;;;4152734;28;20106;-59
2021/06/11 04:58:23;;;;;;;1.25;1.00;;;;;;;;;;4150025;28;20049;-58
2021/06/11 05:00:25;;;;;;;1.65;1.20;;;;;;;;;;4146640;28;20043;-58
2021/06/11 05:02:27;;;;;;;1.63;1.17;;;;;;;;;;4138643;28;20041;-58
2021/06/11 05:04:29;;;;;;;2.05;1.17;;;21.50;48.00;;;;;;4143127;28;20321;-58
2021/06/11 05:06:31;;;;;;;0.95;0.90;;;24.60;43.90;;;;;;4140941;28;20382;-59
2021/06/11 05:08:33;;;;;;;1.08;0.80;;;;;;;;;;4141142;28;20148;-59
2021/06/11 05:10:38;;;;;;;0.77;0.77;;;;;;;;;;4140414;28;20153;-60
2021/06/11 05:12:40;;;;;;;0.90;0.90;;;;;;;;;;4145607;28;20079;-60
2021/06/11 05:14:42;;;;;;;1.42;1.00;;;;;;;;;;4148336;28;20138;-60
2021/06/11 05:16:44;;;;;;;1.08;0.95;;;;;;;;;;4146484;28;20033;-56
2021/06/11 05:18:46;;;;;;;1.15;0.82;;;;;;;;;;4145683;28;20118;-60
2021/06/11 05:20:48;;;;;;;1.60;0.85;;;24.70;43.90;;;;;;4148854;28;20024;-58
2021/06/11 05:22:50;;;;;;;1.00;0.90;;;;;;;;;;4148911;28;20037;-59
2021/06/11 05:24:52;;;;;;;1.15;0.82;;;;;;;;;;4145198;28;20637;-59
2021/06/11 05:26:54;;;;;;;0.90;0.80;;;;;;;;;;4146531;28;20029;-59
2021/06/11 05:28:56;;;;;;;1.25;0.70;;;;;;;;;;4141917;28;20045;-56
2021/06/11 05:30:58;;;;;;;1.10;0.93;;;;;;;;;;4146681;28;20158;-61
2021/06/11 05:33:02;;;;;;;1.10;0.88;;;26.10;41.90;;;;;;4147983;28;20026;-59
2021/06/11 05:35:04;;;;;;;0.80;0.80;;;;;;;;;;4146472;28;20104;-55
2021/06/11 05:37:06;;;;;;;1.42;0.73;;;;;;;;;;4147100;28;21200;-62
2021/06/11 05:39:08;;;;;;;3.33;1.15;;;;;;;;;;4148215;28;20025;-59
2021/06/11 05:41:10;;;;;;;1.08;0.77;;;;;;;;;;4146440;28;21323;-59
2021/06/11 05:43:13;;;;;;;0.73;0.70;;;;;;;;;;4146816;28;20072;-59
2021/06/11 05:45:15;;;;;;;0.90;0.70;;;;;;;;;;4146093;28;20465;-59
2021/06/11 05:47:17;;;;;;;0.82;0.75;;;;;;;;;;4145340;28;20033;-60
2021/06/11 05:49:19;;;;;;;2.85;1.00;;;;;;;;;;4141609;28;20029;-64
2021/06/11 05:51:21;;;;;;;1.38;0.85;;;;;;;;;;4148333;28;20037;-61
2021/06/11 05:53:23;;;;;;;1.00;0.80;;;;;;;;;;4147313;28;20448;-60
2021/06/11 05:55:25;;;;;;;2.10;0.60;;;;;;;;;;4146292;28;20277;-61
2021/06/11 05:57:27;;;;;;;1.87;0.90;;;;;;;;;;4147066;28;20490;-61
2021/06/11 05:59:29;;;;;;;1.40;0.70;;;;;;;;;;4145914;28;20022;-59
2021/06/11 06:01:31;;;;;;;1.00;0.63;;;;;;;;;;4146576;28;20069;-59
2021/06/11 06:03:34;;;;;;;1.15;0.73;;;;;;;;;;4147626;28;20057;-59
2021/06/11 06:05:36;;;;;;;2.27;0.80;;;;;;;;;;4145280;28;20400;-59
2021/06/11 06:07:38;;;;;;;2.22;0.70;;;;;;;;;;4146302;28;20263;-59
2021/06/11 06:09:41;;;;;;;1.30;0.60;;;;;;;;;;4145558;28;20398;-59
2021/06/11 06:11:43;;;;;;;0.50;0.50;;;;;;;;;;4148402;28;20320;-59
2021/06/11 06:13:45;;;;;;;0.80;0.52;;;;;;;;;;4148481;28;20021;-59
2021/06/11 06:15:48;;;;;;;0.63;0.63;;;;;;;;;;4142593;28;20040;-59
2021/06/11 06:17:50;;;;;;;0.60;0.55;;;;;;;;;;4148996;28;20026;-59
2021/06/11 06:19:52;;;;;;;1.02;0.68;;;;;;;;;;4144627;28;20518;-59
2021/06/11 06:21:54;;;;;;;0.90;0.60;;;;;;;;;;4148083;28;20029;-58
2021/06/11 06:23:56;;;;;;;0.82;0.50;;;27.00;41.30;;;;;;4145987;28;20052;-59
2021/06/11 06:25:58;;;;;;;0.85;0.50;;;;;;;;;;4147197;28;20030;-59
2021/06/11 06:28:00;;;;;;;0.50;0.50;;;25.30;42.70;;;;;;4142345;28;20128;-59
2021/06/11 06:30:06;;;;;;;0.77;0.63;;;25.10;42.90;;;;;;4143300;28;20033;-58
2021/06/11 06:32:09;;;;;;;0.70;0.60;;;25.00;42.90;;;;;;4146472;28;20616;-58
2021/06/11 06:34:11;;;;;;;1.50;0.50;;;24.80;43.10;;;;;;4144506;28;20112;-59
2021/06/11 06:36:13;;;;;;;0.85;0.60;;;24.70;43.30;;;;;;4145469;28;20279;-58
2021/06/11 06:38:15;;;;;;;0.52;0.52;;;24.60;43.40;;;;;;4150153;28;20077;-58
2021/06/11 06:40:17;;;;;;;0.82;0.73;;;24.50;43.50;;;;;;4147202;28;20137;-57
2021/06/11 06:42:19;;;;;;;0.52;0.47;;;24.40;43.50;;;;;;4146782;28;20140;-58
2021/06/11 06:44:21;;;;;;;0.50;0.50;;;24.30;43.60;;;;;;4145862;28;20518;-58
2021/06/11 06:46:25;;;;;;;0.75;0.60;;;24.20;43.80;;;;;;4145797;28;20047;-58
2021/06/11 06:48:27;;;;;;;;;;;24.20;43.90;;;;;;4145739;28;20030;-58
2021/06/11 06:50:29;;;;;;;0.55;0.43;;;;;;;;;;4146635;28;19996;-58
2021/06/11 06:52:32;;;;;;;0.50;0.50;;;24.00;44.00;;;;;;4149766;28;20630;-58
2021/06/11 06:54:34;;;;;;;0.60;0.60;;;23.90;44.20;;;;;;4149666;28;20030;-55
2021/06/11 06:56:36;;;;;;;0.40;0.40;;;23.80;44.30;;;;;;4149955;28;20087;-57
2021/06/11 06:58:39;;;;;;;0.50;0.47;;;23.70;44.40;;;;;;4146950;28;20017;-56
2021/06/11 07:00:41;;;;;;;0.80;0.60;;;23.60;44.50;;;;;;4148924;28;20040;-58
2021/06/11 07:02:43;;;;;;;0.63;0.63;;;23.50;44.60;;;;;;4145700;28;20047;-57
2021/06/11 07:04:45;;;;;;;0.43;0.43;;;23.50;44.70;;;;;;4149143;28;20499;-56
2021/06/11 07:06:49;;;;;;;0.63;0.60;;;23.40;44.80;;;;;;4149782;28;20021;-56
2021/06/11 07:08:55;;;;;;;0.50;0.50;;;23.30;44.90;;;;;;4150981;28;20554;-55
2021/06/11 07:11:01;;;;;;;2.00;1.00;;;23.20;45.00;;;;;;4150696;28;20022;-55
2021/06/11 07:13:03;;;;;;;6.68;2.83;;;23.20;45.10;;;;;;4150551;28;20018;-58
2021/06/11 07:15:09;;;;;;;6.53;4.07;;;23.10;45.20;;;;;;4142524;28;20098;-59
2021/06/11 07:17:11;;;;;;;21.98;11.60;;;23.00;45.30;;;;;;4148475;28;20026;-55
2021/06/11 07:19:13;;;;;;;23.90;14.98;;;22.90;45.50;;;;;;4144772;28;20025;-58
2021/06/11 07:21:15;;;;;;;30.55;18.08;;;22.90;45.60;;;;;;4148751;28;20053;-55
2021/06/11 07:23:17;;;;;;;38.47;22.25;;;22.80;45.80;;;;;;4145454;28;20045;-57
2021/06/11 07:25:20;;;;;;;36.70;20.95;;;22.80;45.90;;;;;;4149700;28;20590;-56
2021/06/11 07:27:22;;;;;;;36.95;20.77;;;22.70;46.00;;;;;;4147155;28;20029;-57
2021/06/11 07:29:24;;;;;;;45.50;24.63;;;22.60;46.10;;;;;;4143649;28;20030;-56
2021/06/11 07:31:27;;;;;;;48.03;25.52;;;22.50;46.20;;;;;;4146295;28;20041;-58
2021/06/11 07:33:30;;;;;;;49.63;28.67;;;22.50;46.30;;;;;;4144793;28;20022;-57
2021/06/11 07:35:32;;;;;;;42.53;27.48;;;22.40;46.40;;;;;;4144613;28;20037;-58
2021/06/11 07:37:35;;;;;;;51.70;28.30;;;22.30;46.50;;;;;;4149099;28;20026;-58
2021/06/11 07:39:39;;;;;;;54.35;32.60;;;22.30;46.70;;;;;;4146877;28;20075;-57
2021/06/11 07:41:41;;;;;;;54.13;31.67;;;22.30;46.90;;;;;;4148636;28;20494;-55
2021/06/11 07:43:43;;;;;;;57.33;33.85;;;22.10;47.00;;;;;;4143123;28;20537;-56
2021/06/11 07:45:45;;;;;;;58.75;33.78;;;22.10;47.10;;;;;;4147433;28;20081;-57
2021/06/11 07:47:47;;;;;;;54.33;31.95;;;22.10;47.20;;;;;;4146974;28;20477;-53
2021/06/11 07:49:49;;;;;;;61.38;34.10;;;22.00;47.30;;;;;;4141985;28;20471;-56
2021/06/11 07:51:51;;;;;;;54.30;32.33;;;;;;;;;;4144231;28;20041;-52
2021/06/11 07:53:53;;;;;;;54.20;33.55;;;;;;;;;;4140416;28;20306;-57
2021/06/11 07:55:55;;;;;;;57.35;33.33;;;;;;;;;;4147947;28;20068;-57
2021/06/11 07:57:59;;;;;;;52.97;30.73;;;21.90;47.40;;;;;;4142703;28;20092;-56
2021/06/11 08:00:01;;;;;;;52.55;32.53;;;21.70;48.50;;;;;;4142417;28;20482;-55
2021/06/11 08:02:03;;;;;;;54.28;31.60;;;21.70;48.10;;;;;;4139552;28;20061;-57
2021/06/11 08:04:06;;;;;;;50.45;30.25;;;21.60;48.10;;;;;;4144695;28;20418;-56
2021/06/11 08:06:08;;;;;;;51.25;29.75;;;21.60;48.20;;;;;;4145102;28;20425;-56
2021/06/11 08:08:10;;;;;;;50.78;27.90;;;21.60;48.40;;;;;;4144550;28;20401;-58
2021/06/11 08:10:12;;;;;;;51.08;30.63;;;21.50;48.40;;;;;;4147564;28;20481;-52
2021/06/11 08:12:15;;;;;;;52.53;31.25;;;21.40;48.50;;;;;;4148344;28;20101;-55
2021/06/11 08:14:21;;;;;;;64.13;36.70;;;21.40;48.50;;;;;;4147637;28;20032;-56
2021/06/11 08:16:24;;;;;;;56.05;32.78;;;21.40;49.00;;;;;;4141259;28;20056;-57
2021/06/11 08:18:26;;;;;;;55.30;29.85;;;21.30;49.20;;;;;;4143961;28;20025;-58
2021/06/11 08:20:29;;;;;;;57.22;32.58;;;21.30;49.20;;;;;;4139354;28;20038;-56
2021/06/11 08:22:31;;;;;;;46.38;28.85;;;21.30;49.60;;;;;;4142314;28;20073;-58
2021/06/11 08:24:34;;;;;;;51.72;28.85;;;21.20;49.40;;;;;;4136594;28;20140;-54
2021/06/11 08:26:36;;;;;;;46.80;25.63;;;21.20;49.70;;;;;;4145077;28;20912;-57
2021/06/11 08:28:38;;;;;;;40.13;24.17;;;21.20;49.70;;;;;;4144329;28;20096;-57
2021/06/11 08:30:41;;;;;;;40.05;22.05;;;21.10;50.20;;;;;;4141783;28;20121;-56
2021/06/11 08:32:43;;;;;;;33.83;20.23;;;21.10;50.70;;;;;;4143031;28;20475;-55
2021/06/11 08:34:46;;;;;;;38.88;18.92;;;21.10;50.60;;;;;;4142640;28;20183;-60
2021/06/11 08:36:51;;;;;;;33.42;19.63;;;21.00;51.20;;;;;;4141614;28;20029;-58
2021/06/11 08:38:55;;;;;;;30.58;17.33;;;21.00;50.90;;;;;;4141798;28;20446;-59
2021/06/11 08:40:58;;;;;;;25.52;16.70;;;21.00;51.00;;;;;;4138913;28;21191;-58
2021/06/11 08:43:00;;;;;;;32.78;18.35;;;21.00;51.00;;;;;;4142978;28;20033;-57
2021/06/11 08:45:06;;;;;;;27.43;15.13;;;20.90;50.90;;;;;;4143789;28;20120;-54
2021/06/11 08:47:09;;;;;;;31.63;17.58;;;20.90;50.90;;;;;;4141528;28;20287;-56
2021/06/11 08:49:11;;;;;;;24.30;15.25;;;20.80;51.20;;;;;;4137157;28;20080;-58
2021/06/11 08:51:13;;;;;;;23.23;12.83;;;20.80;51.20;;;;;;4143721;28;20033;-59
2021/06/11 08:53:17;;;;;;;18.25;11.98;;;20.80;51.00;;;;;;4138938;28;20314;-59
2021/06/11 08:55:19;;;;;;;21.33;12.85;;;20.70;51.30;;;;;;4146093;28;20093;-59
2021/06/11 08:57:23;;;;;;;22.65;12.50;;;20.70;51.40;;;;;;4141847;28;20026;-60
2021/06/11 08:59:24;;;;;;;;;;;20.70;51.10;;;;;;4141543;28;20204;-59
2021/06/11 09:01:27;;;;;;;18.35;10.20;;;20.70;51.00;;;;;;4140184;28;19972;-59
2021/06/11 09:03:37;;;;;;;18.23;10.63;;;20.60;51.10;;;;;;4137972;28;20125;-57
2021/06/11 09:05:41;;;;;;;17.08;9.20;;;20.60;51.30;;;;;;4141022;28;20297;-60
2021/06/11 09:07:43;;;;;;;14.68;9.90;;;20.50;51.40;;;;;;4145132;28;20443;-57
2021/06/11 09:09:54;;;;;;;13.90;9.57;;;20.50;51.70;;;;;;4140793;28;20014;-57
2021/06/11 09:11:56;;;;;;;17.08;8.93;;;20.50;51.70;;;;;;4141113;28;20034;-53
2021/06/11 09:14:04;;;;;;;17.27;8.45;;;20.50;51.40;;;;;;4141694;28;20033;-52
2021/06/11 09:16:36;;;;;;;12.65;7.35;;;20.40;51.70;;;;;;4144033;28;20025;-52
2021/06/11 09:18:46;;;;;;;12.25;7.10;;;20.40;51.60;;;;;;4141870;28;20089;-53
2021/06/11 09:20:50;;;;;;;10.82;6.90;;;20.40;52.30;;;;;;4143481;28;20044;-50
2021/06/11 09:22:57;;;;;;;12.32;6.38;;;20.40;51.60;;;;;;4145671;28;20114;-54
2021/06/11 09:25:31;;;;;;;11.88;6.45;;;20.30;51.60;;;;;;4143980;28;20038;-55
2021/06/11 09:27:34;;;;;;;10.13;5.57;;;20.30;51.90;;;;;;4144483;28;20025;-55
2021/06/11 09:29:49;;;;;;;8.80;5.93;;;20.30;51.90;;;;;;4145315;28;20037;-58
2021/06/11 09:31:52;;;;;;;9.02;4.63;;;20.20;52.10;;;;;;4144433;28;20266;-59
2021/06/11 09:33:55;;;;;;;10.88;4.95;;;20.20;52.00;;;;;;4140861;28;20121;-59
2021/06/11 09:35:59;;;;;;;9.27;4.80;;;20.20;52.10;;;;;;4145346;28;20036;-59
2021/06/11 09:38:12;;;;;;;9.05;5.35;;;20.10;52.10;;;;;;4146581;28;20375;-56
2021/06/11 09:40:16;;;;;;;9.13;4.30;;;20.20;52.10;;;;;;4143440;28;20088;-56
2021/06/11 09:42:27;;;;;;;8.07;4.68;;;20.10;52.20;;;;;;4143989;28;20410;-55
2021/06/11 09:44:29;;;;;;;9.32;3.88;;;20.10;52.20;;;;;;4149035;28;20028;-54
2021/06/11 09:46:47;;;;;;;6.20;4.07;;;20.10;52.20;;;;;;4147339;28;20017;-56
2021/06/11 09:48:51;;;;;;;7.63;4.30;;;20.00;52.10;;;;;;4147192;28;20122;-52
2021/06/11 09:50:53;;;;;;;20.75;4.32;;;20.00;52.40;;;;;;4149200;28;20347;-54
2021/06/11 09:52:57;;;;;;;11.13;4.22;;;20.00;52.80;;;;;;4149071;28;20825;-54
2021/06/11 09:54:59;;;;;;;6.05;3.75;;;20.00;52.90;;;;;;4141364;28;20339;-59
2021/06/11 09:57:22;;;;;;;8.45;4.03;;;19.90;52.80;;;;;;4145881;28;20033;-59
2021/06/11 09:59:44;;;;;;;5.93;3.30;;;19.90;53.00;;;;;;4134833;28;20025;-58
2021/06/11 10:01:46;;;;;;;5.75;3.25;;;19.90;52.80;;;;;;4145890;28;20115;-57
2021/06/11 10:03:50;;;;;;;6.13;3.30;;;19.90;52.90;;;;;;4141724;28;20045;-58
2021/06/11 10:05:55;;;;;;;4.82;3.13;;;19.80;52.80;;;;;;4141497;28;20037;-59
2021/06/11 10:07:58;;;;;;;6.97;3.60;;;19.80;52.80;;;;;;4140944;28;20025;-57
2021/06/11 10:10:01;;;;;;;4.68;2.53;;;19.80;52.80;;;;;;4146191;28;20254;-59
2021/06/11 10:12:04;;;;;;;5.27;2.70;;;19.80;53.10;;;;;;4137055;28;20033;-59
2021/06/11 10:14:09;;;;;;;3.63;2.55;;;19.70;53.10;;;;;;4143178;28;20052;-56
2021/06/11 10:16:14;;;;;;;5.35;2.95;;;19.70;53.30;;;;;;4138424;28;20491;-53
2021/06/11 10:18:16;;;;;;;3.78;2.45;;;19.70;53.40;;;;;;4139331;28;20509;-57
2021/06/11 10:20:19;;;;;;;5.45;2.95;;;19.70;53.50;;;;;;4141276;28;20034;-55
2021/06/11 10:22:22;;;;;;;4.40;2.92;;;19.60;53.90;;;;;;4139223;28;20069;-56
2021/06/11 10:24:24;;;;;;;5.07;2.58;;;19.70;54.10;;;;;;4141185;28;20085;-55
2021/06/11 10:26:27;;;;;;;9.55;2.65;;;19.60;54.40;;;;;;4134372;28;20597;-51
2021/06/11 10:28:38;;;;;;;3.38;2.30;;;19.60;54.20;;;;;;4137774;28;20147;-56
2021/06/11 10:30:41;;;;;;;5.65;2.40;;;19.60;54.20;;;;;;4143045;28;20021;-56
2021/06/11 10:32:48;;;;;;;5.13;2.50;;;19.60;54.20;;;;;;4142098;28;20021;-55
2021/06/11 10:34:52;;;;;;;3.60;2.30;;;19.60;54.20;;;;;;4142427;28;20030;-57
2021/06/11 10:36:54;;;;;;;4.20;2.20;;;19.50;54.30;;;;;;4139157;28;20033;-53
2021/06/11 10:39:00;;;;;;;3.17;2.10;;;19.50;54.00;;;;;;4139732;28;20036;-51
2021/06/11 10:41:06;;;;;;;4.22;1.90;;;19.50;54.00;;;;;;4141373;28;20111;-56
2021/06/11 10:43:27;;;;;;;3.80;2.00;;;19.50;53.90;;;;;;4138413;28;20048;-54
2021/06/11 10:45:44;;;;;;;3.40;1.95;;;19.40;53.30;;;;;;4145565;28;20100;-56
2021/06/11 10:47:55;;;;;;;5.10;2.17;;;19.40;54.20;;;;;;4141794;28;20538;-50
2021/06/11 10:49:58;;;;;;;4.57;2.22;;;19.40;53.80;;;;;;4144579;28;20124;-54
2021/06/11 10:52:04;;;;;;;9.23;2.25;;;19.40;54.00;;;;;;4146673;28;20070;-54
2021/06/11 10:54:24;;;;;;;3.85;1.90;;;19.40;54.10;;;;;;4146884;28;20033;-53
2021/06/11 10:56:26;;;;;;;3.28;1.80;;;19.40;54.00;;;;;;4145267;28;20033;-58
2021/06/11 10:58:33;;;;;;;3.08;1.88;;;19.30;53.90;;;;;;4143291;28;20034;-53
2021/06/11 11:00:38;;;;;;;4.57;2.03;;;19.30;54.10;;;;;;4142127;28;20395;-53
2021/06/11 11:02:59;;;;;;;2.63;1.77;;;19.30;53.80;;;;;;4146198;28;20137;-59
2021/06/11 11:05:36;;;;;;;3.38;2.13;;;19.20;53.80;;;;;;4145035;28;20364;-50
2021/06/11 11:07:38;;;;;;;4.47;2.30;;;19.20;53.90;;;;;;4148288;28;20183;-53
2021/06/11 11:10:13;;;;;;;3.70;2.22;;;19.20;53.90;;;;;;4143334;28;21094;-53
2021/06/11 11:12:16;;;;;;;2.90;1.67;;;19.20;54.00;;;;;;4149110;28;20041;-53
2021/06/11 11:14:50;;;;;;;3.92;2.30;;;19.10;53.90;;;;;;4150276;28;20029;-52
2021/06/11 11:16:59;;;;;;;3.55;1.85;;;19.10;53.80;;;;;;4147483;28;20534;-53
2021/06/11 11:19:03;;;;;;;3.90;1.60;;;19.10;53.80;;;;;;4145066;28;20037;-55